sensor_id;sensor_type;location;lat;lon;timestamp;P1;durP1;ratioP1;P2;durP2;ratioP2
78923;SDS011;75282;41.394;23.212;2024-03-22T00:01:53;4.50;;;3.13;;
78923;SDS011;75282;41.394;23.212;2024-03-22T00:04:19;5.38;;;3.13;;
78923;SDS011;75282;41.394;23.212;2024-03-22T00:06:45;6.40;;;3.75;;
78923;SDS011;75282;41.394;23.212;2024-03-22T00:09:11;7.05;;;4.88;;
78923;SDS011;75282;41.394;23.212;2024-03-22T00:11:37;7.90;;;4.18;;
78923;SDS011;75282;41.394;23.212;2024-03-22T00:14:04;6.07;;;3.83;;
78923;SDS011;75282;41.394;23.212;2024-03-22T00:16:29;6.03;;;3.83;;
78923;SDS011;75282;41.394;23.212;2024-03-22T00:18:55;7.55;;;3.80;;
78923;SDS011;75282;41.394;23.212;2024-03-22T00:21:21;5.53;;;3.47;;
78923;SDS011;75282;41.394;23.212;2024-03-22T00:23:47;6.82;;;3.72;;
78923;SDS011;75282;41.394;23.212;2024-03-22T00:26:12;8.60;;;3.60;;
78923;SDS011;75282;41.394;23.212;2024-03-22T00:28:37;7.40;;;4.18;;
78923;SDS011;75282;41.394;23.212;2024-03-22T00:31:03;7.00;;;3.60;;
78923;SDS011;75282;41.394;23.212;2024-03-22T00:33:28;5.68;;;3.10;;
78923;SDS011;75282;41.394;23.212;2024-03-22T00:35:54;5.20;;;2.93;;
78923;SDS011;75282;41.394;23.212;2024-03-22T00:38:19;6.77;;;3.57;;
78923;SDS011;75282;41.394;23.212;2024-03-22T00:40:44;6.28;;;3.78;;
78923;SDS011;75282;41.394;23.212;2024-03-22T00:43:10;7.55;;;3.45;;
78923;SDS011;75282;41.394;23.212;2024-03-22T00:45:35;7.67;;;3.73;;
78923;SDS011;75282;41.394;23.212;2024-03-22T00:48:00;5.47;;;3.83;;
78923;SDS011;75282;41.394;23.212;2024-03-22T00:50:26;6.68;;;3.13;;
78923;SDS011;75282;41.394;23.212;2024-03-22T00:52:54;6.68;;;3.72;;
78923;SDS011;75282;41.394;23.212;2024-03-22T00:55:23;6.32;;;4.00;;
78923;SDS011;75282;41.394;23.212;2024-03-22T00:57:48;4.80;;;3.13;;
78923;SDS011;75282;41.394;23.212;2024-03-22T01:00:14;6.63;;;3.53;;
78923;SDS011;75282;41.394;23.212;2024-03-22T01:02:40;4.95;;;2.92;;
78923;SDS011;75282;41.394;23.212;2024-03-22T01:05:06;7.88;;;3.10;;
78923;SDS011;75282;41.394;23.212;2024-03-22T01:07:31;6.55;;;3.22;;
78923;SDS011;75282;41.394;23.212;2024-03-22T01:09:57;7.25;;;3.60;;
78923;SDS011;75282;41.394;23.212;2024-03-22T01:12:22;9.30;;;4.03;;
78923;SDS011;75282;41.394;23.212;2024-03-22T01:14:47;8.73;;;4.47;;
78923;SDS011;75282;41.394;23.212;2024-03-22T01:17:13;8.02;;;4.78;;
78923;SDS011;75282;41.394;23.212;2024-03-22T01:19:38;7.07;;;4.13;;
78923;SDS011;75282;41.394;23.212;2024-03-22T01:22:04;8.10;;;5.10;;
78923;SDS011;75282;41.394;23.212;2024-03-22T01:24:29;10.18;;;5.57;;
78923;SDS011;75282;41.394;23.212;2024-03-22T01:26:54;12.65;;;6.15;;
78923;SDS011;75282;41.394;23.212;2024-03-22T01:29:20;11.27;;;6.03;;
78923;SDS011;75282;41.394;23.212;2024-03-22T01:31:46;11.32;;;6.50;;
78923;SDS011;75282;41.394;23.212;2024-03-22T01:34:11;9.65;;;5.55;;
78923;SDS011;75282;41.394;23.212;2024-03-22T01:36:37;11.03;;;5.37;;
78923;SDS011;75282;41.394;23.212;2024-03-22T01:39:02;11.82;;;6.25;;
78923;SDS011;75282;41.394;23.212;2024-03-22T01:41:27;9.32;;;5.20;;
78923;SDS011;75282;41.394;23.212;2024-03-22T01:43:53;9.63;;;5.30;;
78923;SDS011;75282;41.394;23.212;2024-03-22T01:46:18;8.07;;;4.67;;
78923;SDS011;75282;41.394;23.212;2024-03-22T01:48:43;6.95;;;5.07;;
78923;SDS011;75282;41.394;23.212;2024-03-22T01:51:09;9.75;;;4.57;;
78923;SDS011;75282;41.394;23.212;2024-03-22T01:53:34;6.50;;;3.92;;
78923;SDS011;75282;41.394;23.212;2024-03-22T01:56:00;7.45;;;4.68;;
78923;SDS011;75282;41.394;23.212;2024-03-22T01:58:26;8.23;;;4.05;;
78923;SDS011;75282;41.394;23.212;2024-03-22T02:00:52;8.73;;;4.50;;
78923;SDS011;75282;41.394;23.212;2024-03-22T02:03:17;9.60;;;4.87;;
78923;SDS011;75282;41.394;23.212;2024-03-22T02:05:42;12.40;;;5.20;;
78923;SDS011;75282;41.394;23.212;2024-03-22T02:08:08;11.50;;;6.13;;
78923;SDS011;75282;41.394;23.212;2024-03-22T02:10:33;9.85;;;5.07;;
78923;SDS011;75282;41.394;23.212;2024-03-22T02:12:59;11.20;;;6.05;;
78923;SDS011;75282;41.394;23.212;2024-03-22T02:15:24;13.67;;;6.23;;
78923;SDS011;75282;41.394;23.212;2024-03-22T02:17:49;11.83;;;5.87;;
78923;SDS011;75282;41.394;23.212;2024-03-22T02:20:15;12.37;;;6.63;;
78923;SDS011;75282;41.394;23.212;2024-03-22T02:22:40;7.78;;;5.30;;
78923;SDS011;75282;41.394;23.212;2024-03-22T02:25:06;9.98;;;5.82;;
78923;SDS011;75282;41.394;23.212;2024-03-22T02:27:32;12.63;;;5.60;;
78923;SDS011;75282;41.394;23.212;2024-03-22T02:29:58;9.65;;;5.90;;
78923;SDS011;75282;41.394;23.212;2024-03-22T02:32:23;11.05;;;5.63;;
78923;SDS011;75282;41.394;23.212;2024-03-22T02:34:49;13.13;;;6.38;;
78923;SDS011;75282;41.394;23.212;2024-03-22T02:37:14;11.27;;;6.30;;
78923;SDS011;75282;41.394;23.212;2024-03-22T02:39:39;11.53;;;6.87;;
78923;SDS011;75282;41.394;23.212;2024-03-22T02:42:05;10.43;;;5.60;;
78923;SDS011;75282;41.394;23.212;2024-03-22T02:44:31;8.32;;;5.22;;
78923;SDS011;75282;41.394;23.212;2024-03-22T02:46:56;8.27;;;5.05;;
78923;SDS011;75282;41.394;23.212;2024-03-22T02:49:21;8.83;;;5.03;;
78923;SDS011;75282;41.394;23.212;2024-03-22T02:51:47;10.23;;;5.20;;
78923;SDS011;75282;41.394;23.212;2024-03-22T02:54:12;8.30;;;4.57;;
78923;SDS011;75282;41.394;23.212;2024-03-22T02:56:38;9.15;;;4.18;;
78923;SDS011;75282;41.394;23.212;2024-03-22T02:59:03;8.48;;;4.45;;
78923;SDS011;75282;41.394;23.212;2024-03-22T03:01:28;8.80;;;4.22;;
78923;SDS011;75282;41.394;23.212;2024-03-22T03:03:54;7.73;;;4.30;;
78923;SDS011;75282;41.394;23.212;2024-03-22T03:06:19;13.50;;;6.97;;
78923;SDS011;75282;41.394;23.212;2024-03-22T03:08:45;18.00;;;8.38;;
78923;SDS011;75282;41.394;23.212;2024-03-22T03:11:10;13.90;;;8.10;;
78923;SDS011;75282;41.394;23.212;2024-03-22T03:13:35;12.03;;;7.50;;
78923;SDS011;75282;41.394;23.212;2024-03-22T03:16:02;13.07;;;8.27;;
78923;SDS011;75282;41.394;23.212;2024-03-22T03:18:28;11.95;;;7.05;;
78923;SDS011;75282;41.394;23.212;2024-03-22T03:20:53;12.05;;;7.53;;
78923;SDS011;75282;41.394;23.212;2024-03-22T03:23:19;14.18;;;7.78;;
78923;SDS011;75282;41.394;23.212;2024-03-22T03:25:45;16.77;;;8.63;;
78923;SDS011;75282;41.394;23.212;2024-03-22T03:28:11;12.10;;;7.22;;
78923;SDS011;75282;41.394;23.212;2024-03-22T03:30:37;17.23;;;8.55;;
78923;SDS011;75282;41.394;23.212;2024-03-22T03:33:03;12.43;;;7.50;;
78923;SDS011;75282;41.394;23.212;2024-03-22T03:35:28;11.02;;;7.32;;
78923;SDS011;75282;41.394;23.212;2024-03-22T03:37:54;16.52;;;8.52;;
78923;SDS011;75282;41.394;23.212;2024-03-22T03:40:19;13.18;;;7.50;;
78923;SDS011;75282;41.394;23.212;2024-03-22T03:42:46;12.45;;;7.53;;
78923;SDS011;75282;41.394;23.212;2024-03-22T03:45:12;15.77;;;8.05;;
78923;SDS011;75282;41.394;23.212;2024-03-22T03:47:37;11.75;;;6.57;;
78923;SDS011;75282;41.394;23.212;2024-03-22T03:50:03;13.95;;;7.95;;
78923;SDS011;75282;41.394;23.212;2024-03-22T03:52:28;13.30;;;6.50;;
78923;SDS011;75282;41.394;23.212;2024-03-22T03:54:54;10.90;;;6.30;;
78923;SDS011;75282;41.394;23.212;2024-03-22T03:57:19;12.93;;;7.23;;
78923;SDS011;75282;41.394;23.212;2024-03-22T03:59:44;11.27;;;7.20;;
78923;SDS011;75282;41.394;23.212;2024-03-22T04:02:10;12.30;;;6.13;;
78923;SDS011;75282;41.394;23.212;2024-03-22T04:04:35;11.65;;;6.78;;
78923;SDS011;75282;41.394;23.212;2024-03-22T04:07:03;12.15;;;6.90;;
78923;SDS011;75282;41.394;23.212;2024-03-22T04:09:28;17.60;;;7.90;;
78923;SDS011;75282;41.394;23.212;2024-03-22T04:11:54;12.80;;;6.60;;
78923;SDS011;75282;41.394;23.212;2024-03-22T04:14:19;20.70;;;10.07;;
78923;SDS011;75282;41.394;23.212;2024-03-22T04:16:44;17.10;;;8.97;;
78923;SDS011;75282;41.394;23.212;2024-03-22T04:19:10;16.87;;;8.83;;
78923;SDS011;75282;41.394;23.212;2024-03-22T04:21:35;17.63;;;9.40;;
78923;SDS011;75282;41.394;23.212;2024-03-22T04:24:00;17.37;;;10.83;;
78923;SDS011;75282;41.394;23.212;2024-03-22T04:26:26;20.20;;;9.60;;
78923;SDS011;75282;41.394;23.212;2024-03-22T04:28:52;23.03;;;9.57;;
78923;SDS011;75282;41.394;23.212;2024-03-22T04:31:17;20.63;;;10.53;;
78923;SDS011;75282;41.394;23.212;2024-03-22T04:33:42;20.98;;;9.65;;
78923;SDS011;75282;41.394;23.212;2024-03-22T04:36:08;21.73;;;10.30;;
78923;SDS011;75282;41.394;23.212;2024-03-22T04:38:36;16.27;;;9.82;;
78923;SDS011;75282;41.394;23.212;2024-03-22T04:41:01;17.27;;;9.80;;
78923;SDS011;75282;41.394;23.212;2024-03-22T04:43:27;27.40;;;15.30;;
78923;SDS011;75282;41.394;23.212;2024-03-22T04:45:53;23.13;;;11.73;;
78923;SDS011;75282;41.394;23.212;2024-03-22T04:48:18;17.13;;;9.50;;
78923;SDS011;75282;41.394;23.212;2024-03-22T04:50:45;12.90;;;8.68;;
78923;SDS011;75282;41.394;23.212;2024-03-22T04:53:12;12.95;;;7.45;;
78923;SDS011;75282;41.394;23.212;2024-03-22T04:55:38;16.40;;;7.20;;
78923;SDS011;75282;41.394;23.212;2024-03-22T04:58:03;15.85;;;9.55;;
78923;SDS011;75282;41.394;23.212;2024-03-22T05:00:29;15.25;;;8.52;;
78923;SDS011;75282;41.394;23.212;2024-03-22T05:02:54;21.85;;;9.63;;
78923;SDS011;75282;41.394;23.212;2024-03-22T05:05:20;21.73;;;10.23;;
78923;SDS011;75282;41.394;23.212;2024-03-22T05:07:45;16.10;;;9.32;;
78923;SDS011;75282;41.394;23.212;2024-03-22T05:10:11;28.57;;;13.70;;
78923;SDS011;75282;41.394;23.212;2024-03-22T05:12:37;30.10;;;15.25;;
78923;SDS011;75282;41.394;23.212;2024-03-22T05:15:03;22.55;;;13.60;;
78923;SDS011;75282;41.394;23.212;2024-03-22T05:17:29;21.35;;;12.27;;
78923;SDS011;75282;41.394;23.212;2024-03-22T05:19:56;25.67;;;14.27;;
78923;SDS011;75282;41.394;23.212;2024-03-22T05:22:22;33.28;;;17.77;;
78923;SDS011;75282;41.394;23.212;2024-03-22T05:24:47;24.83;;;13.52;;
78923;SDS011;75282;41.394;23.212;2024-03-22T05:27:13;21.53;;;11.47;;
78923;SDS011;75282;41.394;23.212;2024-03-22T05:29:38;20.03;;;10.80;;
78923;SDS011;75282;41.394;23.212;2024-03-22T05:32:03;22.13;;;12.77;;
78923;SDS011;75282;41.394;23.212;2024-03-22T05:34:29;32.70;;;18.20;;
78923;SDS011;75282;41.394;23.212;2024-03-22T05:36:55;34.70;;;19.45;;
78923;SDS011;75282;41.394;23.212;2024-03-22T05:39:20;31.33;;;18.08;;
78923;SDS011;75282;41.394;23.212;2024-03-22T05:41:45;34.83;;;18.97;;
78923;SDS011;75282;41.394;23.212;2024-03-22T05:44:11;31.38;;;16.67;;
78923;SDS011;75282;41.394;23.212;2024-03-22T05:46:36;24.35;;;14.75;;
78923;SDS011;75282;41.394;23.212;2024-03-22T05:49:02;21.80;;;12.88;;
78923;SDS011;75282;41.394;23.212;2024-03-22T05:51:27;24.48;;;13.77;;
78923;SDS011;75282;41.394;23.212;2024-03-22T05:53:53;27.15;;;13.70;;
78923;SDS011;75282;41.394;23.212;2024-03-22T05:56:18;20.87;;;13.53;;
78923;SDS011;75282;41.394;23.212;2024-03-22T05:58:44;21.00;;;11.20;;
78923;SDS011;75282;41.394;23.212;2024-03-22T06:01:09;28.17;;;14.98;;
78923;SDS011;75282;41.394;23.212;2024-03-22T06:03:35;20.98;;;12.25;;
78923;SDS011;75282;41.394;23.212;2024-03-22T06:06:00;18.47;;;9.50;;
78923;SDS011;75282;41.394;23.212;2024-03-22T06:08:28;15.10;;;8.75;;
78923;SDS011;75282;41.394;23.212;2024-03-22T06:10:54;18.38;;;9.50;;
78923;SDS011;75282;41.394;23.212;2024-03-22T06:13:21;10.98;;;7.97;;
78923;SDS011;75282;41.394;23.212;2024-03-22T06:15:48;12.85;;;8.40;;
78923;SDS011;75282;41.394;23.212;2024-03-22T06:18:14;24.63;;;14.63;;
78923;SDS011;75282;41.394;23.212;2024-03-22T06:20:39;42.85;;;23.90;;
78923;SDS011;75282;41.394;23.212;2024-03-22T06:23:05;25.88;;;16.25;;
78923;SDS011;75282;41.394;23.212;2024-03-22T06:25:30;37.60;;;19.43;;
78923;SDS011;75282;41.394;23.212;2024-03-22T06:27:55;34.17;;;18.97;;
78923;SDS011;75282;41.394;23.212;2024-03-22T06:30:21;23.67;;;16.00;;
78923;SDS011;75282;41.394;23.212;2024-03-22T06:32:46;32.08;;;16.67;;
78923;SDS011;75282;41.394;23.212;2024-03-22T06:35:12;30.00;;;16.42;;
78923;SDS011;75282;41.394;23.212;2024-03-22T06:37:38;23.95;;;14.93;;
78923;SDS011;75282;41.394;23.212;2024-03-22T06:40:05;33.25;;;20.80;;
78923;SDS011;75282;41.394;23.212;2024-03-22T06:42:31;35.78;;;19.98;;
78923;SDS011;75282;41.394;23.212;2024-03-22T06:44:56;35.45;;;19.88;;
78923;SDS011;75282;41.394;23.212;2024-03-22T06:47:22;31.57;;;19.00;;
78923;SDS011;75282;41.394;23.212;2024-03-22T06:49:48;29.15;;;16.48;;
78923;SDS011;75282;41.394;23.212;2024-03-22T06:52:13;31.95;;;17.92;;
78923;SDS011;75282;41.394;23.212;2024-03-22T06:54:39;33.65;;;18.92;;
78923;SDS011;75282;41.394;23.212;2024-03-22T06:57:05;35.13;;;19.05;;
78923;SDS011;75282;41.394;23.212;2024-03-22T06:59:30;38.60;;;21.08;;
78923;SDS011;75282;41.394;23.212;2024-03-22T07:01:56;35.85;;;21.95;;
78923;SDS011;75282;41.394;23.212;2024-03-22T07:04:21;51.28;;;26.58;;
78923;SDS011;75282;41.394;23.212;2024-03-22T07:06:47;45.28;;;25.73;;
78923;SDS011;75282;41.394;23.212;2024-03-22T07:09:12;40.50;;;24.23;;
78923;SDS011;75282;41.394;23.212;2024-03-22T07:11:38;39.88;;;22.42;;
78923;SDS011;75282;41.394;23.212;2024-03-22T07:14:03;35.77;;;21.30;;
78923;SDS011;75282;41.394;23.212;2024-03-22T07:16:28;30.30;;;19.97;;
78923;SDS011;75282;41.394;23.212;2024-03-22T07:18:54;40.90;;;24.05;;
78923;SDS011;75282;41.394;23.212;2024-03-22T07:21:19;36.73;;;20.70;;
78923;SDS011;75282;41.394;23.212;2024-03-22T07:23:45;25.92;;;16.08;;
78923;SDS011;75282;41.394;23.212;2024-03-22T07:26:10;24.37;;;15.03;;
78923;SDS011;75282;41.394;23.212;2024-03-22T07:28:35;28.20;;;16.27;;
78923;SDS011;75282;41.394;23.212;2024-03-22T07:31:01;27.00;;;15.47;;
78923;SDS011;75282;41.394;23.212;2024-03-22T07:33:26;21.52;;;12.88;;
78923;SDS011;75282;41.394;23.212;2024-03-22T07:35:51;24.92;;;14.95;;
78923;SDS011;75282;41.394;23.212;2024-03-22T07:38:19;23.52;;;11.95;;
78923;SDS011;75282;41.394;23.212;2024-03-22T07:40:44;14.50;;;10.38;;
78923;SDS011;75282;41.394;23.212;2024-03-22T07:43:10;20.70;;;11.30;;
78923;SDS011;75282;41.394;23.212;2024-03-22T07:45:35;28.55;;;10.57;;
78923;SDS011;75282;41.394;23.212;2024-03-22T07:48:01;16.85;;;9.13;;
78923;SDS011;75282;41.394;23.212;2024-03-22T07:50:26;12.40;;;7.78;;
78923;SDS011;75282;41.394;23.212;2024-03-22T07:52:52;10.38;;;6.75;;
78923;SDS011;75282;41.394;23.212;2024-03-22T07:55:18;12.00;;;6.78;;
78923;SDS011;75282;41.394;23.212;2024-03-22T07:57:43;16.95;;;5.40;;
78923;SDS011;75282;41.394;23.212;2024-03-22T08:00:09;8.70;;;5.80;;
78923;SDS011;75282;41.394;23.212;2024-03-22T08:02:35;8.48;;;5.57;;
78923;SDS011;75282;41.394;23.212;2024-03-22T08:05:00;11.80;;;7.45;;
78923;SDS011;75282;41.394;23.212;2024-03-22T08:07:26;10.88;;;6.20;;
78923;SDS011;75282;41.394;23.212;2024-03-22T08:09:52;10.68;;;5.50;;
78923;SDS011;75282;41.394;23.212;2024-03-22T08:12:18;10.40;;;6.43;;
78923;SDS011;75282;41.394;23.212;2024-03-22T08:14:44;12.57;;;6.13;;
78923;SDS011;75282;41.394;23.212;2024-03-22T08:17:10;11.10;;;7.53;;
78923;SDS011;75282;41.394;23.212;2024-03-22T08:19:36;11.10;;;6.07;;
78923;SDS011;75282;41.394;23.212;2024-03-22T08:22:02;12.32;;;5.68;;
78923;SDS011;75282;41.394;23.212;2024-03-22T08:24:29;13.50;;;6.28;;
78923;SDS011;75282;41.394;23.212;2024-03-22T08:26:55;10.00;;;6.72;;
78923;SDS011;75282;41.394;23.212;2024-03-22T08:29:20;10.35;;;5.68;;
78923;SDS011;75282;41.394;23.212;2024-03-22T08:31:46;14.00;;;5.82;;
78923;SDS011;75282;41.394;23.212;2024-03-22T08:34:12;15.63;;;5.65;;
78923;SDS011;75282;41.394;23.212;2024-03-22T08:36:37;14.63;;;6.28;;
78923;SDS011;75282;41.394;23.212;2024-03-22T08:39:02;11.03;;;6.07;;
78923;SDS011;75282;41.394;23.212;2024-03-22T08:41:28;8.07;;;5.57;;
78923;SDS011;75282;41.394;23.212;2024-03-22T08:43:53;9.07;;;4.93;;
78923;SDS011;75282;41.394;23.212;2024-03-22T08:46:19;12.55;;;5.75;;
78923;SDS011;75282;41.394;23.212;2024-03-22T08:48:46;12.10;;;5.35;;
78923;SDS011;75282;41.394;23.212;2024-03-22T08:51:11;9.10;;;5.45;;
78923;SDS011;75282;41.394;23.212;2024-03-22T08:53:37;11.55;;;5.72;;
78923;SDS011;75282;41.394;23.212;2024-03-22T08:56:02;10.00;;;5.82;;
78923;SDS011;75282;41.394;23.212;2024-03-22T08:58:28;11.27;;;5.07;;
78923;SDS011;75282;41.394;23.212;2024-03-22T09:00:53;8.40;;;4.75;;
78923;SDS011;75282;41.394;23.212;2024-03-22T09:03:20;12.90;;;6.13;;
78923;SDS011;75282;41.394;23.212;2024-03-22T09:05:46;9.50;;;5.47;;
78923;SDS011;75282;41.394;23.212;2024-03-22T09:08:12;7.35;;;5.18;;
78923;SDS011;75282;41.394;23.212;2024-03-22T09:10:37;7.32;;;4.55;;
78923;SDS011;75282;41.394;23.212;2024-03-22T09:13:02;9.50;;;5.13;;
78923;SDS011;75282;41.394;23.212;2024-03-22T09:15:28;10.68;;;5.40;;
78923;SDS011;75282;41.394;23.212;2024-03-22T09:17:53;27.10;;;6.67;;
78923;SDS011;75282;41.394;23.212;2024-03-22T09:20:19;14.23;;;5.57;;
78923;SDS011;75282;41.394;23.212;2024-03-22T09:22:49;10.85;;;5.05;;
78923;SDS011;75282;41.394;23.212;2024-03-22T09:27:42;9.25;;;6.38;;
78923;SDS011;75282;41.394;23.212;2024-03-22T09:30:09;11.15;;;6.13;;
78923;SDS011;75282;41.394;23.212;2024-03-22T09:32:34;10.38;;;6.15;;
78923;SDS011;75282;41.394;23.212;2024-03-22T09:35:00;8.70;;;5.77;;
78923;SDS011;75282;41.394;23.212;2024-03-22T09:37:26;8.48;;;5.43;;
78923;SDS011;75282;41.394;23.212;2024-03-22T09:39:51;11.02;;;5.80;;
78923;SDS011;75282;41.394;23.212;2024-03-22T09:42:20;9.35;;;6.20;;
78923;SDS011;75282;41.394;23.212;2024-03-22T09:44:48;7.60;;;5.10;;
78923;SDS011;75282;41.394;23.212;2024-03-22T09:47:15;11.57;;;7.93;;
78923;SDS011;75282;41.394;23.212;2024-03-22T09:49:41;13.18;;;6.63;;
78923;SDS011;75282;41.394;23.212;2024-03-22T09:52:12;9.07;;;4.75;;
78923;SDS011;75282;41.394;23.212;2024-03-22T09:54:41;10.32;;;6.20;;
78923;SDS011;75282;41.394;23.212;2024-03-22T09:57:13;8.15;;;5.75;;
78923;SDS011;75282;41.394;23.212;2024-03-22T09:59:43;12.93;;;5.47;;
78923;SDS011;75282;41.394;23.212;2024-03-22T10:02:13;10.38;;;5.43;;
78923;SDS011;75282;41.394;23.212;2024-03-22T10:04:39;22.25;;;6.43;;
78923;SDS011;75282;41.394;23.212;2024-03-22T10:07:05;9.32;;;4.60;;
78923;SDS011;75282;41.394;23.212;2024-03-22T10:09:32;11.85;;;5.30;;
78923;SDS011;75282;41.394;23.212;2024-03-22T10:11:59;35.45;;;8.40;;
78923;SDS011;75282;41.394;23.212;2024-03-22T10:14:25;10.80;;;5.10;;
78923;SDS011;75282;41.394;23.212;2024-03-22T10:16:52;9.77;;;5.55;;
78923;SDS011;75282;41.394;23.212;2024-03-22T10:19:19;6.93;;;4.57;;
78923;SDS011;75282;41.394;23.212;2024-03-22T10:21:59;8.60;;;4.65;;
78923;SDS011;75282;41.394;23.212;2024-03-22T10:24:25;6.90;;;4.80;;
78923;SDS011;75282;41.394;23.212;2024-03-22T10:26:51;9.10;;;4.88;;
78923;SDS011;75282;41.394;23.212;2024-03-22T10:29:17;13.13;;;5.20;;
78923;SDS011;75282;41.394;23.212;2024-03-22T10:31:45;7.65;;;3.83;;
78923;SDS011;75282;41.394;23.212;2024-03-22T10:34:13;9.82;;;4.95;;
78923;SDS011;75282;41.394;23.212;2024-03-22T10:36:40;18.58;;;5.20;;
78923;SDS011;75282;41.394;23.212;2024-03-22T10:41:47;6.85;;;4.70;;
78923;SDS011;75282;41.394;23.212;2024-03-22T10:44:14;13.10;;;5.78;;
78923;SDS011;75282;41.394;23.212;2024-03-22T10:46:45;9.27;;;4.72;;
78923;SDS011;75282;41.394;23.212;2024-03-22T10:49:16;51.67;;;11.68;;
78923;SDS011;75282;41.394;23.212;2024-03-22T10:51:50;13.10;;;7.00;;
78923;SDS011;75282;41.394;23.212;2024-03-22T10:56:50;7.53;;;4.28;;
78923;SDS011;75282;41.394;23.212;2024-03-22T10:59:21;7.95;;;4.88;;
78923;SDS011;75282;41.394;23.212;2024-03-22T11:01:51;11.45;;;5.03;;
78923;SDS011;75282;41.394;23.212;2024-03-22T11:04:20;6.25;;;4.68;;
78923;SDS011;75282;41.394;23.212;2024-03-22T11:06:50;11.55;;;4.60;;
78923;SDS011;75282;41.394;23.212;2024-03-22T11:09:22;5.90;;;4.28;;
78923;SDS011;75282;41.394;23.212;2024-03-22T11:11:48;6.97;;;4.60;;
78923;SDS011;75282;41.394;23.212;2024-03-22T11:14:14;10.45;;;5.10;;
78923;SDS011;75282;41.394;23.212;2024-03-22T11:16:44;6.90;;;4.00;;
78923;SDS011;75282;41.394;23.212;2024-03-22T11:19:10;5.72;;;3.95;;
78923;SDS011;75282;41.394;23.212;2024-03-22T11:21:38;5.80;;;4.20;;
78923;SDS011;75282;41.394;23.212;2024-03-22T11:24:04;9.48;;;5.13;;
78923;SDS011;75282;41.394;23.212;2024-03-22T11:26:31;8.30;;;4.00;;
78923;SDS011;75282;41.394;23.212;2024-03-22T11:28:58;6.47;;;4.13;;
78923;SDS011;75282;41.394;23.212;2024-03-22T11:31:25;7.05;;;4.57;;
78923;SDS011;75282;41.394;23.212;2024-03-22T11:33:55;6.45;;;4.35;;
78923;SDS011;75282;41.394;23.212;2024-03-22T11:36:23;10.70;;;5.05;;
78923;SDS011;75282;41.394;23.212;2024-03-22T11:38:49;8.05;;;4.53;;
78923;SDS011;75282;41.394;23.212;2024-03-22T11:41:23;7.80;;;4.57;;
78923;SDS011;75282;41.394;23.212;2024-03-22T11:43:57;8.30;;;4.55;;
78923;SDS011;75282;41.394;23.212;2024-03-22T11:46:27;6.30;;;4.63;;
78923;SDS011;75282;41.394;23.212;2024-03-22T11:48:54;8.98;;;5.18;;
78923;SDS011;75282;41.394;23.212;2024-03-22T11:51:23;6.85;;;4.50;;
78923;SDS011;75282;41.394;23.212;2024-03-22T11:53:52;7.57;;;4.30;;
78923;SDS011;75282;41.394;23.212;2024-03-22T11:56:21;9.88;;;6.75;;
78923;SDS011;75282;41.394;23.212;2024-03-22T11:58:49;10.23;;;5.85;;
78923;SDS011;75282;41.394;23.212;2024-03-22T12:01:15;12.25;;;5.20;;
78923;SDS011;75282;41.394;23.212;2024-03-22T12:03:44;6.50;;;4.25;;
78923;SDS011;75282;41.394;23.212;2024-03-22T12:06:12;12.18;;;5.22;;
78923;SDS011;75282;41.394;23.212;2024-03-22T12:08:39;6.78;;;3.92;;
78923;SDS011;75282;41.394;23.212;2024-03-22T12:11:09;7.25;;;4.50;;
78923;SDS011;75282;41.394;23.212;2024-03-22T12:13:35;9.32;;;6.07;;
78923;SDS011;75282;41.394;23.212;2024-03-22T12:16:03;6.78;;;4.05;;
78923;SDS011;75282;41.394;23.212;2024-03-22T12:18:30;10.00;;;4.28;;
78923;SDS011;75282;41.394;23.212;2024-03-22T12:20:56;6.47;;;3.80;;
78923;SDS011;75282;41.394;23.212;2024-03-22T12:23:23;9.13;;;5.20;;
78923;SDS011;75282;41.394;23.212;2024-03-22T12:25:50;7.32;;;4.78;;
78923;SDS011;75282;41.394;23.212;2024-03-22T12:28:21;8.57;;;4.95;;
78923;SDS011;75282;41.394;23.212;2024-03-22T12:30:47;17.25;;;5.72;;
78923;SDS011;75282;41.394;23.212;2024-03-22T12:33:14;10.30;;;4.85;;
78923;SDS011;75282;41.394;23.212;2024-03-22T12:35:40;19.85;;;5.72;;
78923;SDS011;75282;41.394;23.212;2024-03-22T12:38:14;9.30;;;5.43;;
78923;SDS011;75282;41.394;23.212;2024-03-22T12:40:41;8.73;;;6.07;;
78923;SDS011;75282;41.394;23.212;2024-03-22T12:43:10;38.92;;;7.97;;
78923;SDS011;75282;41.394;23.212;2024-03-22T12:45:36;6.97;;;4.70;;
78923;SDS011;75282;41.394;23.212;2024-03-22T12:48:02;9.68;;;4.75;;
78923;SDS011;75282;41.394;23.212;2024-03-22T12:50:29;6.75;;;4.80;;
78923;SDS011;75282;41.394;23.212;2024-03-22T12:52:55;5.57;;;4.45;;
78923;SDS011;75282;41.394;23.212;2024-03-22T12:55:22;7.32;;;4.25;;
78923;SDS011;75282;41.394;23.212;2024-03-22T12:57:48;7.70;;;4.78;;
78923;SDS011;75282;41.394;23.212;2024-03-22T13:00:14;8.98;;;5.50;;
78923;SDS011;75282;41.394;23.212;2024-03-22T13:02:44;10.32;;;5.10;;
78923;SDS011;75282;41.394;23.212;2024-03-22T13:05:11;6.95;;;4.40;;
78923;SDS011;75282;41.394;23.212;2024-03-22T13:07:38;9.90;;;5.80;;
78923;SDS011;75282;41.394;23.212;2024-03-22T13:10:05;12.43;;;6.00;;
78923;SDS011;75282;41.394;23.212;2024-03-22T13:12:32;8.85;;;4.47;;
78923;SDS011;75282;41.394;23.212;2024-03-22T13:15:02;9.23;;;5.40;;
78923;SDS011;75282;41.394;23.212;2024-03-22T13:17:28;11.32;;;5.32;;
78923;SDS011;75282;41.394;23.212;2024-03-22T13:19:53;12.13;;;7.97;;
78923;SDS011;75282;41.394;23.212;2024-03-22T13:22:19;20.70;;;16.50;;
78923;SDS011;75282;41.394;23.212;2024-03-22T13:24:46;21.85;;;6.40;;
78923;SDS011;75282;41.394;23.212;2024-03-22T13:27:12;15.98;;;8.40;;
78923;SDS011;75282;41.394;23.212;2024-03-22T13:29:38;19.90;;;7.80;;
78923;SDS011;75282;41.394;23.212;2024-03-22T13:32:05;17.25;;;7.53;;
78923;SDS011;75282;41.394;23.212;2024-03-22T13:34:35;7.85;;;4.95;;
78923;SDS011;75282;41.394;23.212;2024-03-22T13:37:01;8.20;;;4.65;;
78923;SDS011;75282;41.394;23.212;2024-03-22T13:39:28;9.70;;;6.15;;
78923;SDS011;75282;41.394;23.212;2024-03-22T13:41:55;16.92;;;5.45;;
78923;SDS011;75282;41.394;23.212;2024-03-22T13:44:25;8.70;;;4.85;;
78923;SDS011;75282;41.394;23.212;2024-03-22T13:46:51;7.47;;;4.88;;
78923;SDS011;75282;41.394;23.212;2024-03-22T13:49:17;7.85;;;4.80;;
78923;SDS011;75282;41.394;23.212;2024-03-22T13:51:47;13.25;;;4.85;;
78923;SDS011;75282;41.394;23.212;2024-03-22T13:54:14;8.73;;;4.68;;
78923;SDS011;75282;41.394;23.212;2024-03-22T13:56:40;8.57;;;5.15;;
78923;SDS011;75282;41.394;23.212;2024-03-22T13:59:06;7.68;;;5.00;;
78923;SDS011;75282;41.394;23.212;2024-03-22T14:01:36;20.20;;;6.65;;
78923;SDS011;75282;41.394;23.212;2024-03-22T14:04:03;8.60;;;6.57;;
78923;SDS011;75282;41.394;23.212;2024-03-22T14:06:31;10.95;;;5.50;;
78923;SDS011;75282;41.394;23.212;2024-03-22T14:08:57;10.43;;;5.60;;
78923;SDS011;75282;41.394;23.212;2024-03-22T14:11:27;8.68;;;4.82;;
78923;SDS011;75282;41.394;23.212;2024-03-22T14:13:54;11.85;;;6.45;;
78923;SDS011;75282;41.394;23.212;2024-03-22T14:16:20;39.50;;;36.17;;
78923;SDS011;75282;41.394;23.212;2024-03-22T14:18:46;8.43;;;5.55;;
78923;SDS011;75282;41.394;23.212;2024-03-22T14:21:11;8.50;;;5.43;;
78923;SDS011;75282;41.394;23.212;2024-03-22T14:23:39;12.30;;;5.80;;
78923;SDS011;75282;41.394;23.212;2024-03-22T14:26:10;17.92;;;6.60;;